Terminal Aerodrome Forecast
Issued by NWS

Home | Current Version | Previous Version | Text Only | Print | Product List | Glossary On
Versions: 1 2 3 4 5 6 7 8 9 10 11 12 13 14 15 16 17 18 19 20 21 22 23 24 25 26 27 28 29 30 31 32 33 34 35 36 37
000
FTUS43 KLOT 281900 AAB
TAFORD
TAF AMD
KORD 281957Z 2820/2924 17012G20KT P6SM SCT020 BKN120 BKN200
      TEMPO 2820/2822 BKN020
     FM290100 19011KT P6SM SCT015 BKN090
     FM290600 19010KT P6SM BKN200
     FM291400 20012G20KT P6SM BKN200=

USA.gov is the U.S. government's official web portal to all federal, state and local government web resources and services.